Pagina principale
METAR-TAF:

METAR-TAF

Aeroporti :

Lahr, Germania

latitudine: 48-22-09N, longitudine: 007-49-40E, altezza: 156 m

Osservazione

Il bollettino è stato emesso 34 minuti fa, alle 21:20 UTC
Vento 7 kt da nord/nord-est
Temperature 18°C
Umidità 64%
Pressione 1015 hPa
Visibilità 10 km o più

METAR: EDTL 032120Z AUTO 02007KT 9999 // NCD 18/11 Q1015

Ora: 23:54 (21:54 UTC)

Previsione

Il bollettino è stato emesso 4 ore e 54 minuti fa, alle 17:00 UTC
Previsione valida dal 03 alle 18 UTC al 03 alle 24 UTC
Vento 9 kt da nord/nord-est
Visibilità 10 km o più
nessuna nube inferiore a 1500 m e nessun cumulonembo
Evoluzione graduale
dal 03 alle 18 UTC al 03 alle 20 UTC
Vento 4 kt da nord/nord-est

TAF: EDTL 031700Z 0318/0324 02009KT CAVOK BECMG 0318/0320 02004KT

Osservazioni e previsioni meteorologiche di più di 4000 aeroporti (messaggi METAR e TAF).

Le stazioni disponibili sono rappresentate dai dischi gialli e rossi sulla carta.

Puntare il mouse per vedere il nome della stazione.

Clicca sopra per visualizzare le osservazioni e previsioni meteorologiche.

Per cambiare la mappa : fare clic sui pulsanti verdi con una croce nera per ingrandire, il pulsante verde con un trattino per diminuire, o sulla freccia verde per le mappe adiacenti.


METAR-TAF: